sensor_id;sensor_type;location;lat;lon;timestamp;P1;durP1;ratioP1;P2;durP2;ratioP2
76439;SDS011;65274;44.982;20.060;2023-09-19T08:23:42;12.63;;;6.65;;
76439;SDS011;65274;44.982;20.060;2023-09-19T08:57:46;13.65;;;6.70;;
76439;SDS011;65274;44.982;20.060;2023-09-19T09:31:06;15.98;;;7.65;;
76439;SDS011;65274;44.982;20.060;2023-09-19T09:37:14;22.85;;;7.03;;
76439;SDS011;65274;44.982;20.060;2023-09-19T09:39:59;16.15;;;5.82;;
76439;SDS011;65274;44.982;20.060;2023-09-19T09:52:36;14.32;;;6.03;;
76439;SDS011;65274;44.982;20.060;2023-09-19T09:56:10;17.73;;;5.95;;
76439;SDS011;65274;44.982;20.060;2023-09-19T09:58:22;16.05;;;6.63;;
76439;SDS011;65274;44.982;20.060;2023-09-19T10:07:33;25.40;;;7.30;;
76439;SDS011;65274;44.982;20.060;2023-09-19T10:10:15;17.70;;;6.07;;
76439;SDS011;65274;44.982;20.060;2023-09-19T10:12:56;23.27;;;8.23;;
76439;SDS011;65274;44.982;20.060;2023-09-19T10:15:31;32.08;;;8.07;;
76439;SDS011;65274;44.982;20.060;2023-09-19T10:18:06;16.77;;;6.53;;
76439;SDS011;65274;44.982;20.060;2023-09-19T10:23:37;15.23;;;7.15;;
76439;SDS011;65274;44.982;20.060;2023-09-19T10:26:04;16.45;;;6.20;;
76439;SDS011;65274;44.982;20.060;2023-09-19T10:28:31;19.40;;;7.00;;
76439;SDS011;65274;44.982;20.060;2023-09-19T10:31:03;16.88;;;5.75;;
76439;SDS011;65274;44.982;20.060;2023-09-19T10:33:38;21.58;;;7.30;;
76439;SDS011;65274;44.982;20.060;2023-09-19T10:36:09;18.85;;;7.03;;
76439;SDS011;65274;44.982;20.060;2023-09-19T10:38:42;27.58;;;6.93;;
76439;SDS011;65274;44.982;20.060;2023-09-19T10:41:27;25.85;;;6.93;;
76439;SDS011;65274;44.982;20.060;2023-09-19T10:43:55;19.73;;;7.28;;
76439;SDS011;65274;44.982;20.060;2023-09-19T10:52:37;24.35;;;7.82;;
76439;SDS011;65274;44.982;20.060;2023-09-19T10:55:07;22.35;;;7.35;;
76439;SDS011;65274;44.982;20.060;2023-09-19T10:57:36;15.63;;;8.00;;
76439;SDS011;65274;44.982;20.060;2023-09-19T11:09:08;24.60;;;7.38;;
76439;SDS011;65274;44.982;20.060;2023-09-19T11:33:19;25.00;;;8.23;;
76439;SDS011;65274;44.982;20.060;2023-09-19T11:39:28;37.85;;;8.88;;
76439;SDS011;65274;44.982;20.060;2023-09-19T11:42:00;32.10;;;9.25;;
76439;SDS011;65274;44.982;20.060;2023-09-19T11:44:32;38.40;;;9.00;;
76439;SDS011;65274;44.982;20.060;2023-09-19T11:49:35;25.83;;;7.40;;
76439;SDS011;65274;44.982;20.060;2023-09-19T11:58:29;27.58;;;6.70;;
76439;SDS011;65274;44.982;20.060;2023-09-19T12:01:08;23.38;;;5.25;;
76439;SDS011;65274;44.982;20.060;2023-09-19T12:06:45;25.83;;;6.00;;
76439;SDS011;65274;44.982;20.060;2023-09-19T12:09:24;28.55;;;6.90;;
76439;SDS011;65274;44.982;20.060;2023-09-19T12:12:10;32.13;;;6.05;;
76439;SDS011;65274;44.982;20.060;2023-09-19T12:14:56;28.83;;;5.75;;
76439;SDS011;65274;44.982;20.060;2023-09-19T12:17:23;21.23;;;4.68;;
76439;SDS011;65274;44.982;20.060;2023-09-19T12:23:13;34.97;;;5.25;;
76439;SDS011;65274;44.982;20.060;2023-09-19T12:28:54;22.88;;;4.35;;
76439;SDS011;65274;44.982;20.060;2023-09-19T12:31:32;20.50;;;4.25;;
76439;SDS011;65274;44.982;20.060;2023-09-19T12:34:04;10.37;;;4.07;;
76439;SDS011;65274;44.982;20.060;2023-09-19T12:40:11;16.75;;;3.50;;
76439;SDS011;65274;44.982;20.060;2023-09-19T12:46:01;19.02;;;4.47;;
76439;SDS011;65274;44.982;20.060;2023-09-19T12:48:36;19.10;;;4.20;;
76439;SDS011;65274;44.982;20.060;2023-09-19T12:51:36;11.38;;;3.60;;
76439;SDS011;65274;44.982;20.060;2023-09-19T12:54:04;13.32;;;4.40;;
76439;SDS011;65274;44.982;20.060;2023-09-19T12:59:53;25.73;;;3.90;;
76439;SDS011;65274;44.982;20.060;2023-09-19T13:02:33;20.52;;;4.28;;
76439;SDS011;65274;44.982;20.060;2023-09-19T13:08:05;28.98;;;5.22;;
76439;SDS011;65274;44.982;20.060;2023-09-19T13:11:13;12.32;;;3.95;;
76439;SDS011;65274;44.982;20.060;2023-09-19T13:48:58;14.95;;;3.30;;
76439;SDS011;65274;44.982;20.060;2023-09-19T14:00:20;15.98;;;3.53;;
76439;SDS011;65274;44.982;20.060;2023-09-19T14:02:47;16.23;;;3.47;;
76439;SDS011;65274;44.982;20.060;2023-09-19T14:05:15;12.40;;;3.58;;
76439;SDS011;65274;44.982;20.060;2023-09-19T14:07:45;20.73;;;3.42;;
76439;SDS011;65274;44.982;20.060;2023-09-19T14:10:16;15.07;;;4.63;;
76439;SDS011;65274;44.982;20.060;2023-09-19T14:12:44;14.48;;;3.20;;
76439;SDS011;65274;44.982;20.060;2023-09-19T14:15:10;15.48;;;3.70;;
76439;SDS011;65274;44.982;20.060;2023-09-19T14:17:37;22.90;;;3.97;;
76439;SDS011;65274;44.982;20.060;2023-09-19T14:20:07;15.00;;;3.83;;
76439;SDS011;65274;44.982;20.060;2023-09-19T14:22:46;20.77;;;3.88;;
76439;SDS011;65274;44.982;20.060;2023-09-19T14:25:21;9.57;;;2.65;;
76439;SDS011;65274;44.982;20.060;2023-09-19T14:28:07;7.50;;;3.15;;
76439;SDS011;65274;44.982;20.060;2023-09-19T14:30:36;14.40;;;4.30;;
76439;SDS011;65274;44.982;20.060;2023-09-19T14:33:05;10.68;;;3.05;;
76439;SDS011;65274;44.982;20.060;2023-09-19T14:35:33;12.85;;;3.75;;
76439;SDS011;65274;44.982;20.060;2023-09-19T14:37:59;7.50;;;2.70;;
76439;SDS011;65274;44.982;20.060;2023-09-19T14:43:34;10.85;;;3.63;;
76439;SDS011;65274;44.982;20.060;2023-09-19T14:46:10;23.60;;;6.20;;
76439;SDS011;65274;44.982;20.060;2023-09-19T14:49:00;18.48;;;9.95;;
76439;SDS011;65274;44.982;20.060;2023-09-19T14:51:29;16.35;;;6.07;;
76439;SDS011;65274;44.982;20.060;2023-09-19T14:53:59;13.90;;;3.60;;
76439;SDS011;65274;44.982;20.060;2023-09-19T14:56:39;12.10;;;4.82;;
76439;SDS011;65274;44.982;20.060;2023-09-19T14:59:05;17.20;;;3.93;;
76439;SDS011;65274;44.982;20.060;2023-09-19T15:01:32;12.57;;;2.30;;
76439;SDS011;65274;44.982;20.060;2023-09-19T15:06:46;11.85;;;2.78;;
76439;SDS011;65274;44.982;20.060;2023-09-19T15:09:49;10.02;;;2.28;;
76439;SDS011;65274;44.982;20.060;2023-09-19T15:12:24;12.85;;;2.65;;
76439;SDS011;65274;44.982;20.060;2023-09-19T15:15:00;14.13;;;2.78;;
76439;SDS011;65274;44.982;20.060;2023-09-19T15:17:49;4.88;;;2.10;;
76439;SDS011;65274;44.982;20.060;2023-09-19T15:20:16;8.93;;;3.03;;
76439;SDS011;65274;44.982;20.060;2023-09-19T15:22:42;8.87;;;2.50;;
76439;SDS011;65274;44.982;20.060;2023-09-19T15:25:09;11.50;;;3.03;;
76439;SDS011;65274;44.982;20.060;2023-09-19T15:30:41;23.55;;;4.65;;
76439;SDS011;65274;44.982;20.060;2023-09-19T15:33:10;21.98;;;3.63;;
76439;SDS011;65274;44.982;20.060;2023-09-19T15:35:36;7.15;;;2.40;;
76439;SDS011;65274;44.982;20.060;2023-09-19T15:40:32;14.32;;;2.85;;
76439;SDS011;65274;44.982;20.060;2023-09-19T15:42:58;7.22;;;3.00;;
76439;SDS011;65274;44.982;20.060;2023-09-19T15:45:25;7.43;;;2.25;;
76439;SDS011;65274;44.982;20.060;2023-09-19T15:47:51;13.35;;;3.80;;
76439;SDS011;65274;44.982;20.060;2023-09-19T15:52:52;16.70;;;3.92;;
76439;SDS011;65274;44.982;20.060;2023-09-19T15:55:22;12.57;;;3.30;;
76439;SDS011;65274;44.982;20.060;2023-09-19T15:57:49;18.00;;;3.22;;
76439;SDS011;65274;44.982;20.060;2023-09-19T16:00:16;11.77;;;2.42;;
76439;SDS011;65274;44.982;20.060;2023-09-19T16:02:45;12.98;;;3.13;;
76439;SDS011;65274;44.982;20.060;2023-09-19T16:08:16;12.18;;;3.80;;
76439;SDS011;65274;44.982;20.060;2023-09-19T16:37:47;13.32;;;4.68;;
